createdAt,value
2022-09-20T00:02:17.905Z,0.90
2022-09-20T00:04:50.496Z,0.90
2022-09-20T00:07:20.941Z,0.90
2022-09-20T00:09:51.246Z,1.40
2022-09-20T00:12:21.469Z,1.10
2022-09-20T00:14:51.772Z,1.00
2022-09-20T00:17:24.498Z,1.20
2022-09-20T00:19:54.827Z,1.10
2022-09-20T00:22:25.134Z,0.90
2022-09-20T00:24:55.449Z,0.90
2022-09-20T00:27:28.110Z,1.10
2022-09-20T00:29:58.802Z,1.00
2022-09-20T00:32:29.142Z,0.90
2022-09-20T00:35:11.644Z,0.90
2022-09-20T00:37:44.164Z,1.30
2022-09-20T00:40:18.391Z,0.90
2022-09-20T00:42:49.075Z,1.30
2022-09-20T00:45:23.576Z,1.20
2022-09-20T00:47:58.160Z,1.10
2022-09-20T00:50:34.955Z,1.00
2022-09-20T00:53:10.582Z,0.80
2022-09-20T00:55:45.661Z,1.00
2022-09-20T00:58:18.408Z,1.00
2022-09-20T01:00:50.843Z,0.80
2022-09-20T01:03:23.325Z,0.70
2022-09-20T01:05:55.971Z,1.10
2022-09-20T01:08:26.547Z,1.00
2022-09-20T01:10:56.948Z,0.90
2022-09-20T01:13:27.339Z,0.90
2022-09-20T01:16:00.577Z,1.00
2022-09-20T01:18:33.106Z,1.00
2022-09-20T01:21:05.023Z,1.00
2022-09-20T01:23:49.960Z,1.00
2022-09-20T01:26:54.237Z,1.00
2022-09-20T01:29:42.645Z,0.90
2022-09-20T01:32:17.775Z,1.10
2022-09-20T01:34:50.973Z,1.00
2022-09-20T01:37:27.953Z,0.80
2022-09-20T01:42:38.019Z,0.60
2022-09-20T01:45:17.784Z,0.70
2022-09-20T01:47:57.548Z,0.60
2022-09-20T01:50:38.649Z,0.80
2022-09-20T01:53:36.554Z,0.50
2022-09-20T01:56:49.315Z,0.80
2022-09-20T01:59:41.732Z,0.80
2022-09-20T02:02:34.924Z,0.80
2022-09-20T02:05:28.379Z,0.90
2022-09-20T02:08:20.962Z,1.00
2022-09-20T02:11:13.426Z,0.70
2022-09-20T02:14:12.056Z,0.60
2022-09-20T02:16:54.499Z,0.70
2022-09-20T02:19:42.450Z,0.80
2022-09-20T02:22:28.157Z,0.70
2022-09-20T02:25:09.884Z,0.80
2022-09-20T02:27:54.144Z,1.00
2022-09-20T02:30:36.428Z,0.80
2022-09-20T02:33:22.535Z,0.90
2022-09-20T02:36:15.114Z,0.70
2022-09-20T02:39:00.596Z,0.80
2022-09-20T02:42:00.299Z,0.90
2022-09-20T02:44:47.199Z,0.80
2022-09-20T02:47:28.904Z,0.80
2022-09-20T02:50:16.031Z,0.80
2022-09-20T02:52:58.316Z,0.80
2022-09-20T02:55:39.565Z,0.80
2022-09-20T02:58:27.142Z,1.00
2022-09-20T03:03:45.538Z,1.10
2022-09-20T03:06:28.686Z,1.10
2022-09-20T03:09:08.874Z,1.20
2022-09-20T03:11:45.775Z,1.00
2022-09-20T03:14:23.240Z,0.90
2022-09-20T03:17:03.789Z,1.10
2022-09-20T03:19:48.338Z,1.10
2022-09-20T03:22:37.658Z,0.90
2022-09-20T03:25:26.345Z,1.10
2022-09-20T03:28:06.595Z,1.10
2022-09-20T03:30:52.539Z,1.00
2022-09-20T03:33:31.227Z,1.20
2022-09-20T03:36:15.176Z,0.90
2022-09-20T03:39:04.324Z,1.20
2022-09-20T03:41:56.274Z,1.30
2022-09-20T03:45:00.349Z,0.90
2022-09-20T03:47:49.074Z,1.20
2022-09-20T03:50:46.225Z,1.20
2022-09-20T03:53:51.885Z,0.90
2022-09-20T03:56:43.924Z,1.00
2022-09-20T03:59:40.708Z,1.10
2022-09-20T04:02:25.666Z,1.20
2022-09-20T04:04:59.875Z,1.00
2022-09-20T04:07:39.326Z,1.10
2022-09-20T04:10:26.770Z,0.90
2022-09-20T04:13:11.950Z,1.00
2022-09-20T04:15:51.295Z,1.40
2022-09-20T04:18:30.088Z,1.50
2022-09-20T04:21:05.054Z,1.30
2022-09-20T04:23:46.745Z,1.30
2022-09-20T04:26:23.571Z,1.50
2022-09-20T04:29:01.967Z,1.00
2022-09-20T04:31:43.095Z,1.50
2022-09-20T04:34:22.845Z,1.40
2022-09-20T04:37:19.383Z,1.50
2022-09-20T04:39:57.169Z,1.50
2022-09-20T04:42:54.660Z,2.00
2022-09-20T04:45:58.563Z,2.10
2022-09-20T04:48:53.673Z,3.20
2022-09-20T04:51:46.872Z,3.20
2022-09-20T04:54:44.714Z,3.00
2022-09-20T04:57:45.871Z,3.30
2022-09-20T05:00:20.174Z,3.30
2022-09-20T05:03:40.364Z,2.80
2022-09-20T05:06:43.375Z,3.70
2022-09-20T05:09:42.286Z,3.30
2022-09-20T05:12:28.766Z,3.10
2022-09-20T05:15:24.497Z,3.80
2022-09-20T05:18:35.182Z,3.70
2022-09-20T05:21:29.734Z,3.30
2022-09-20T05:24:12.597Z,3.20
2022-09-20T05:26:53.249Z,4.30
2022-09-20T05:29:32.869Z,4.00
2022-09-20T05:32:10.642Z,4.10
2022-09-20T05:34:47.441Z,3.50
2022-09-20T05:37:34.427Z,3.40
2022-09-20T05:40:16.407Z,3.20
2022-09-20T05:42:54.911Z,3.40
2022-09-20T05:45:43.788Z,3.30
2022-09-20T05:48:19.759Z,2.40
2022-09-20T05:51:03.097Z,2.80
2022-09-20T05:54:17.176Z,3.60
2022-09-20T05:56:53.582Z,3.00
2022-09-20T05:59:37.959Z,2.80
2022-09-20T06:02:23.830Z,3.20
2022-09-20T06:05:04.165Z,2.40
2022-09-20T06:07:52.336Z,2.70
2022-09-20T06:10:47.317Z,2.60
2022-09-20T06:13:31.999Z,2.80
2022-09-20T06:16:05.389Z,2.80
2022-09-20T06:18:42.844Z,3.10
2022-09-20T06:21:27.358Z,2.60
2022-09-20T06:24:02.380Z,2.70
2022-09-20T06:26:38.011Z,2.30
2022-09-20T06:29:13.136Z,2.90
2022-09-20T06:31:43.545Z,2.80
2022-09-20T06:34:15.932Z,2.10
2022-09-20T06:37:09.734Z,2.40
2022-09-20T06:40:04.400Z,2.90
2022-09-20T06:42:34.770Z,2.50
2022-09-20T06:45:05.800Z,2.60
2022-09-20T06:47:38.882Z,2.30
2022-09-20T06:50:15.841Z,2.30
2022-09-20T06:52:47.480Z,2.80
2022-09-20T06:55:26.041Z,2.70
2022-09-20T06:57:59.136Z,2.80
2022-09-20T07:00:29.428Z,2.50
2022-09-20T07:02:59.762Z,2.70
2022-09-20T07:05:30.050Z,2.80
2022-09-20T07:08:01.624Z,2.80
2022-09-20T07:10:32.725Z,2.60
2022-09-20T07:13:04.043Z,2.50
2022-09-20T07:15:36.431Z,2.50
2022-09-20T07:18:07.768Z,2.70
2022-09-20T07:20:38.019Z,2.60
2022-09-20T07:23:08.313Z,2.30
2022-09-20T07:25:38.961Z,3.00
2022-09-20T07:28:09.218Z,2.70
2022-09-20T07:30:39.734Z,2.70
2022-09-20T07:33:10.935Z,2.70
2022-09-20T07:35:41.802Z,2.40
2022-09-20T07:38:12.193Z,2.80
2022-09-20T07:40:45.013Z,2.90
2022-09-20T07:43:15.328Z,2.50
2022-09-20T07:45:45.673Z,2.40
2022-09-20T07:48:16.256Z,2.30
2022-09-20T07:50:53.534Z,2.80
2022-09-20T07:53:24.924Z,2.60
2022-09-20T07:56:03.293Z,2.50
2022-09-20T07:58:35.873Z,2.50
2022-09-20T08:01:09.676Z,2.20
2022-09-20T08:03:40.487Z,2.20
2022-09-20T08:06:14.551Z,2.30
2022-09-20T08:08:45.386Z,2.30
2022-09-20T08:11:19.200Z,2.10
2022-09-20T08:14:08.256Z,2.00
2022-09-20T08:16:43.730Z,1.70
2022-09-20T08:19:18.067Z,2.20
2022-09-20T08:21:48.830Z,1.80
2022-09-20T08:24:19.456Z,2.30
2022-09-20T08:26:49.897Z,2.00
2022-09-20T08:29:20.215Z,1.90
2022-09-20T08:31:50.617Z,1.90
2022-09-20T08:34:21.080Z,2.20
2022-09-20T08:36:52.727Z,2.40
2022-09-20T08:42:23.922Z,2.20
2022-09-20T08:44:59.175Z,2.20
2022-09-20T08:47:33.257Z,2.30
2022-09-20T08:50:09.965Z,2.00
2022-09-20T08:52:45.554Z,2.40
2022-09-20T08:55:18.701Z,1.90
2022-09-20T08:57:53.115Z,2.10
2022-09-20T09:00:26.335Z,2.10
2022-09-20T09:03:01.226Z,2.30
2022-09-20T09:05:38.388Z,2.10
2022-09-20T09:08:16.490Z,2.60
2022-09-20T09:10:54.719Z,1.90
2022-09-20T09:13:31.161Z,2.10
2022-09-20T09:16:07.563Z,2.00
2022-09-20T09:18:40.156Z,2.00
2022-09-20T09:21:18.488Z,2.30
2022-09-20T09:23:54.456Z,2.40
2022-09-20T09:26:25.890Z,2.70
2022-09-20T09:29:16.191Z,2.30
2022-09-20T09:31:47.334Z,2.30
2022-09-20T09:34:29.254Z,2.40
2022-09-20T09:37:00.254Z,2.30
2022-09-20T09:39:33.132Z,2.30
2022-09-20T09:42:19.956Z,2.00
2022-09-20T09:44:50.506Z,2.30
2022-09-20T09:47:29.400Z,1.90
2022-09-20T09:50:04.886Z,2.20
2022-09-20T09:52:38.031Z,2.00
2022-09-20T09:55:11.180Z,2.10
2022-09-20T09:57:55.934Z,2.60
2022-09-20T10:00:28.796Z,2.00
2022-09-20T10:03:29.907Z,2.40
2022-09-20T10:06:14.604Z,2.00
2022-09-20T10:08:59.765Z,2.00
2022-09-20T10:11:41.911Z,1.90
2022-09-20T10:14:29.539Z,2.00
2022-09-20T10:17:19.105Z,1.90
2022-09-20T10:20:05.300Z,2.00
2022-09-20T10:23:06.649Z,1.80
2022-09-20T10:25:49.141Z,1.80
2022-09-20T10:28:35.524Z,1.90
2022-09-20T10:31:23.565Z,1.90
2022-09-20T10:34:11.224Z,1.60
2022-09-20T10:36:50.647Z,1.50
2022-09-20T10:39:26.373Z,1.10
2022-09-20T10:42:26.750Z,1.40
2022-09-20T10:45:11.762Z,1.10
2022-09-20T10:47:54.499Z,1.50
2022-09-20T10:50:34.917Z,1.60
2022-09-20T10:53:30.256Z,1.20
2022-09-20T10:56:10.599Z,1.50
2022-09-20T10:58:56.971Z,1.20
2022-09-20T11:01:35.535Z,1.40
2022-09-20T11:04:23.953Z,1.10
2022-09-20T11:07:03.872Z,1.40
2022-09-20T11:09:38.942Z,1.00
2022-09-20T11:12:16.278Z,1.10
2022-09-20T11:14:53.935Z,1.20
2022-09-20T11:17:27.948Z,1.10
2022-09-20T11:20:07.417Z,1.00
2022-09-20T11:22:44.384Z,1.00
2022-09-20T11:25:23.979Z,1.00
2022-09-20T11:28:02.792Z,1.00
2022-09-20T11:30:39.299Z,1.20
2022-09-20T11:33:18.733Z,1.30
2022-09-20T11:35:54.597Z,1.10
2022-09-20T11:38:30.057Z,1.20
2022-09-20T11:41:08.761Z,0.80
2022-09-20T11:43:46.064Z,1.10
2022-09-20T11:46:24.310Z,0.80
2022-09-20T11:49:01.634Z,0.80
2022-09-20T11:52:18.891Z,0.70
2022-09-20T11:55:10.824Z,0.90
2022-09-20T11:57:42.363Z,0.50
2022-09-20T12:00:14.129Z,0.60
2022-09-20T12:02:49.790Z,0.70
2022-09-20T12:05:33.691Z,0.50
2022-09-20T12:08:06.626Z,1.00
2022-09-20T12:10:40.345Z,0.60
2022-09-20T12:13:24.441Z,1.00
2022-09-20T12:16:03.256Z,0.80
2022-09-20T12:18:47.184Z,0.80
2022-09-20T12:21:23.849Z,1.00
2022-09-20T12:24:21.274Z,0.60
2022-09-20T12:26:56.312Z,0.60
2022-09-20T12:29:54.773Z,0.70
2022-09-20T12:32:56.446Z,0.70
2022-09-20T12:36:14.900Z,0.70
2022-09-20T12:38:58.771Z,0.90
2022-09-20T12:41:45.589Z,0.90
2022-09-20T12:44:32.172Z,0.80
2022-09-20T12:47:04.849Z,0.70
2022-09-20T12:50:00.519Z,0.60
2022-09-20T12:52:57.258Z,0.70
2022-09-20T12:55:43.934Z,0.70
2022-09-20T12:58:28.099Z,0.60
2022-09-20T13:01:30.316Z,0.70
2022-09-20T13:04:32.345Z,0.70
2022-09-20T13:07:34.698Z,1.00
2022-09-20T13:10:20.490Z,0.90
2022-09-20T13:12:54.658Z,0.60
2022-09-20T13:15:25.147Z,0.90
2022-09-20T13:17:59.982Z,0.90
2022-09-20T13:20:34.938Z,0.80
2022-09-20T13:23:06.492Z,0.90
2022-09-20T13:25:42.004Z,0.70
2022-09-20T13:28:22.815Z,0.90
2022-09-20T13:31:13.202Z,0.80
2022-09-20T13:33:43.649Z,0.40
2022-09-20T13:36:14.707Z,0.70
2022-09-20T13:38:45.969Z,0.60
2022-09-20T13:41:16.459Z,0.90
2022-09-20T13:43:49.971Z,0.50
2022-09-20T13:46:25.428Z,0.90
2022-09-20T13:49:17.517Z,0.70
2022-09-20T13:51:48.984Z,1.10
2022-09-20T13:54:28.485Z,0.90
2022-09-20T13:57:02.763Z,1.00
2022-09-20T13:59:37.670Z,1.20
2022-09-20T14:02:20.688Z,0.90
2022-09-20T14:04:52.708Z,0.90
2022-09-20T14:07:25.828Z,0.90
2022-09-20T14:09:56.995Z,1.20
2022-09-20T14:12:30.376Z,1.00
2022-09-20T14:15:02.240Z,1.20
2022-09-20T14:17:38.425Z,1.00
2022-09-20T14:20:15.337Z,0.80
2022-09-20T14:25:28.459Z,1.10
2022-09-20T14:28:18.669Z,1.20
2022-09-20T14:30:49.636Z,1.00
2022-09-20T14:33:24.400Z,1.00
2022-09-20T14:35:55.519Z,1.20
2022-09-20T14:38:28.516Z,1.00
2022-09-20T14:40:59.170Z,1.00
2022-09-20T14:43:34.238Z,1.10
2022-09-20T14:46:06.780Z,1.10
2022-09-20T14:48:41.995Z,1.20
2022-09-20T14:51:24.378Z,1.00
2022-09-20T14:54:16.010Z,1.20
2022-09-20T14:56:53.164Z,1.20
2022-09-20T14:59:27.306Z,1.30
2022-09-20T15:02:02.931Z,1.50
2022-09-20T15:04:35.497Z,1.30
2022-09-20T15:07:08.539Z,1.10
2022-09-20T15:09:38.948Z,1.30
2022-09-20T15:12:15.243Z,1.10
2022-09-20T15:14:46.100Z,0.70
2022-09-20T15:17:19.086Z,0.70
2022-09-20T15:19:53.740Z,0.70
2022-09-20T15:22:26.080Z,0.90
2022-09-20T15:24:58.920Z,0.70
2022-09-20T15:27:29.615Z,0.90
2022-09-20T15:29:59.943Z,0.80
2022-09-20T15:32:30.394Z,0.50
2022-09-20T15:35:00.768Z,0.70
2022-09-20T15:37:31.117Z,0.70
2022-09-20T15:40:02.243Z,0.80
2022-09-20T15:42:32.787Z,0.80
2022-09-20T15:45:03.497Z,0.70
2022-09-20T15:47:33.925Z,0.60
2022-09-20T15:50:04.897Z,0.70
2022-09-20T15:52:38.034Z,0.80
2022-09-20T15:55:10.717Z,0.70
2022-09-20T15:57:41.985Z,0.80
2022-09-20T16:00:15.042Z,0.80
2022-09-20T16:02:49.162Z,0.70
2022-09-20T16:05:21.916Z,0.80
2022-09-20T16:07:52.439Z,0.70
2022-09-20T16:10:22.865Z,0.70
2022-09-20T16:12:55.942Z,1.00
2022-09-20T16:15:28.513Z,0.60
2022-09-20T16:18:16.723Z,0.70
2022-09-20T16:20:48.444Z,0.60
2022-09-20T16:23:21.825Z,0.70
2022-09-20T16:26:00.214Z,0.60
2022-09-20T16:28:31.148Z,0.60
2022-09-20T16:31:01.676Z,0.80
2022-09-20T16:33:34.285Z,0.70
2022-09-20T16:36:05.109Z,0.80
2022-09-20T16:38:37.278Z,0.60
2022-09-20T16:41:08.467Z,0.90
2022-09-20T16:43:40.041Z,0.60
2022-09-20T16:46:12.098Z,0.70
2022-09-20T16:48:48.049Z,0.60
2022-09-20T16:51:20.577Z,0.50
2022-09-20T16:53:58.670Z,0.60
2022-09-20T16:56:30.733Z,0.60
2022-09-20T16:59:01.064Z,0.60
2022-09-20T17:01:32.711Z,0.60
2022-09-20T17:04:05.926Z,0.50
2022-09-20T17:06:38.385Z,0.70
2022-09-20T17:09:09.541Z,0.70
2022-09-20T17:11:41.837Z,0.70
2022-09-20T17:14:12.567Z,0.70
2022-09-20T17:16:47.596Z,0.70
2022-09-20T17:19:19.708Z,0.60
2022-09-20T17:21:52.147Z,0.70
2022-09-20T17:24:24.300Z,0.80
2022-09-20T17:26:55.650Z,0.60
2022-09-20T17:29:28.162Z,0.60
2022-09-20T17:32:00.264Z,0.60
2022-09-20T17:34:31.863Z,0.70
2022-09-20T17:37:03.512Z,0.60
2022-09-20T17:39:33.878Z,0.60
2022-09-20T17:42:04.168Z,0.80
2022-09-20T17:44:36.819Z,0.60
2022-09-20T17:47:08.240Z,0.60
2022-09-20T17:49:40.711Z,0.60
2022-09-20T17:52:11.338Z,0.60
2022-09-20T17:54:42.356Z,0.60
2022-09-20T17:57:12.676Z,0.50
2022-09-20T17:59:42.947Z,0.90
2022-09-20T18:02:13.459Z,0.60
2022-09-20T18:04:43.750Z,0.80
2022-09-20T18:07:16.399Z,0.60
2022-09-20T18:09:46.760Z,0.60
2022-09-20T18:12:20.840Z,0.90
2022-09-20T18:14:51.724Z,1.00
2022-09-20T18:17:22.171Z,0.90
2022-09-20T18:19:52.582Z,1.10
2022-09-20T18:22:22.899Z,1.10
2022-09-20T18:24:53.158Z,1.10
2022-09-20T18:27:23.561Z,1.10
2022-09-20T18:29:53.899Z,0.90
2022-09-20T18:32:24.415Z,1.50
2022-09-20T18:34:54.788Z,1.20
2022-09-20T18:37:25.063Z,1.00
2022-09-20T18:39:55.767Z,0.80
2022-09-20T18:42:26.454Z,0.80
2022-09-20T18:44:56.716Z,0.90
2022-09-20T18:47:27.151Z,0.80
2022-09-20T18:49:57.528Z,0.90
2022-09-20T18:52:29.799Z,0.90
2022-09-20T18:55:00.411Z,0.80
2022-09-20T18:57:31.536Z,0.70
2022-09-20T19:00:03.995Z,1.00
2022-09-20T19:03:04.784Z,0.70
2022-09-20T19:05:44.144Z,0.70
2022-09-20T19:08:26.643Z,0.90
2022-09-20T19:11:02.316Z,0.70
2022-09-20T19:13:43.347Z,1.50
2022-09-20T19:16:20.811Z,1.20
2022-09-20T19:19:09.361Z,1.40
2022-09-20T19:21:47.472Z,1.70
2022-09-20T19:24:29.243Z,1.50
2022-09-20T19:27:07.310Z,1.90
2022-09-20T19:29:38.924Z,1.70
2022-09-20T19:32:16.399Z,1.70
2022-09-20T19:34:51.132Z,1.90
2022-09-20T19:37:31.090Z,2.00
2022-09-20T19:40:17.234Z,1.90
2022-09-20T19:43:03.418Z,1.60
2022-09-20T19:45:42.182Z,1.80
2022-09-20T19:48:18.355Z,2.10
2022-09-20T19:50:52.938Z,2.10
2022-09-20T19:53:27.630Z,1.60
2022-09-20T19:56:01.807Z,1.80
2022-09-20T19:58:33.027Z,1.70
2022-09-20T20:01:04.104Z,1.90
2022-09-20T20:03:35.801Z,1.80
2022-09-20T20:06:12.791Z,1.90
2022-09-20T20:11:27.569Z,1.70
2022-09-20T20:14:07.213Z,1.80
2022-09-20T20:16:53.890Z,1.80
2022-09-20T20:19:39.991Z,1.90
2022-09-20T20:22:28.422Z,1.90
2022-09-20T20:24:59.666Z,1.40
2022-09-20T20:27:31.411Z,1.60
2022-09-20T20:30:01.757Z,1.80
2022-09-20T20:32:33.142Z,1.90
2022-09-20T20:35:03.421Z,1.60
2022-09-20T20:37:35.085Z,1.90
2022-09-20T20:40:06.246Z,1.90
2022-09-20T20:42:37.163Z,2.20
2022-09-20T20:45:10.448Z,1.80
2022-09-20T20:47:44.279Z,2.00
2022-09-20T20:50:15.083Z,1.90
2022-09-20T20:52:46.004Z,1.90
2022-09-20T20:55:17.411Z,1.80
2022-09-20T20:57:52.242Z,2.10
2022-09-20T21:00:22.849Z,1.60
2022-09-20T21:02:59.150Z,2.20
2022-09-20T21:05:30.122Z,1.90
2022-09-20T21:08:00.399Z,1.50
2022-09-20T21:10:30.803Z,2.00
2022-09-20T21:13:01.594Z,1.80
2022-09-20T21:15:31.997Z,1.80
2022-09-20T21:18:02.326Z,2.40
2022-09-20T21:20:32.675Z,2.00
2022-09-20T21:23:02.911Z,1.70
2022-09-20T21:25:33.220Z,1.60
2022-09-20T21:28:03.905Z,1.80
2022-09-20T21:30:34.192Z,1.30
2022-09-20T21:33:04.666Z,1.60
2022-09-20T21:35:34.914Z,1.40
2022-09-20T21:38:05.195Z,1.70
2022-09-20T21:40:35.908Z,1.70
2022-09-20T21:43:06.442Z,2.00
2022-09-20T21:45:40.335Z,1.80
2022-09-20T21:48:10.907Z,1.90
2022-09-20T21:50:41.134Z,2.10
2022-09-20T21:53:11.441Z,1.90
2022-09-20T21:55:41.761Z,1.90
2022-09-20T21:58:12.093Z,1.80
2022-09-20T22:00:43.292Z,1.90
2022-09-20T22:03:14.449Z,1.70
2022-09-20T22:05:44.750Z,2.00
2022-09-20T22:08:15.608Z,2.00
2022-09-20T22:10:55.390Z,1.60
2022-09-20T22:13:25.918Z,1.60
2022-09-20T22:16:03.261Z,1.60
2022-09-20T22:18:38.301Z,1.60
2022-09-20T22:21:12.090Z,2.00
2022-09-20T22:23:43.248Z,2.00
2022-09-20T22:26:15.657Z,1.90
2022-09-20T22:28:46.869Z,1.70
2022-09-20T22:31:18.690Z,1.80
2022-09-20T22:33:50.976Z,2.10
2022-09-20T22:36:23.174Z,1.70
2022-09-20T22:38:54.269Z,2.00
2022-09-20T22:41:25.163Z,1.60
2022-09-20T22:43:55.700Z,1.60
2022-09-20T22:46:28.211Z,2.00
2022-09-20T22:48:58.518Z,2.10
2022-09-20T22:51:30.789Z,1.70
2022-09-20T22:54:01.424Z,1.90
2022-09-20T22:56:32.414Z,2.10
2022-09-20T23:54:34.151Z,2.80
2022-09-20T23:57:04.579Z,3.10
2022-09-20T23:59:34.880Z,3.00
